sensor_id;sensor_type;location;lat;lon;timestamp;temperature;humidity
7196;DHT22;3639;51.308;5.624;2023-09-07T00:00:50;18.60;99.90
7196;DHT22;3639;51.308;5.624;2023-09-07T00:03:16;18.60;99.90
7196;DHT22;3639;51.308;5.624;2023-09-07T00:05:42;18.50;99.90
7196;DHT22;3639;51.308;5.624;2023-09-07T00:08:07;18.50;99.90
7196;DHT22;3639;51.308;5.624;2023-09-07T00:10:33;18.50;99.90
7196;DHT22;3639;51.308;5.624;2023-09-07T00:13:03;18.50;99.90
7196;DHT22;3639;51.308;5.624;2023-09-07T00:15:30;18.40;99.90
7196;DHT22;3639;51.308;5.624;2023-09-07T00:17:56;18.40;99.90
7196;DHT22;3639;51.308;5.624;2023-09-07T00:20:22;18.40;99.90
7196;DHT22;3639;51.308;5.624;2023-09-07T00:22:49;18.20;99.90
7196;DHT22;3639;51.308;5.624;2023-09-07T00:25:14;18.20;99.90
7196;DHT22;3639;51.308;5.624;2023-09-07T00:27:40;18.20;99.90
7196;DHT22;3639;51.308;5.624;2023-09-07T00:30:08;18.20;99.90
7196;DHT22;3639;51.308;5.624;2023-09-07T00:32:38;18.10;99.90
7196;DHT22;3639;51.308;5.624;2023-09-07T00:35:05;18.10;99.90
7196;DHT22;3639;51.308;5.624;2023-09-07T00:37:32;18.10;99.90
7196;DHT22;3639;51.308;5.624;2023-09-07T00:39:58;18.00;99.90
7196;DHT22;3639;51.308;5.624;2023-09-07T00:42:24;17.90;99.90
7196;DHT22;3639;51.308;5.624;2023-09-07T00:44:50;17.90;99.90
7196;DHT22;3639;51.308;5.624;2023-09-07T00:47:17;17.90;99.90
7196;DHT22;3639;51.308;5.624;2023-09-07T00:49:44;17.80;99.90
7196;DHT22;3639;51.308;5.624;2023-09-07T00:52:12;17.70;99.90
7196;DHT22;3639;51.308;5.624;2023-09-07T00:54:38;17.70;99.90
7196;DHT22;3639;51.308;5.624;2023-09-07T00:57:06;17.70;99.90
7196;DHT22;3639;51.308;5.624;2023-09-07T00:59:33;17.60;99.90
7196;DHT22;3639;51.308;5.624;2023-09-07T01:01:59;17.60;99.90
7196;DHT22;3639;51.308;5.624;2023-09-07T01:04:25;17.60;99.90
7196;DHT22;3639;51.308;5.624;2023-09-07T01:06:55;17.60;99.90
7196;DHT22;3639;51.308;5.624;2023-09-07T01:09:24;17.50;99.90
7196;DHT22;3639;51.308;5.624;2023-09-07T01:11:52;17.40;99.90
7196;DHT22;3639;51.308;5.624;2023-09-07T01:14:18;17.40;99.90
7196;DHT22;3639;51.308;5.624;2023-09-07T01:16:44;17.40;99.90
7196;DHT22;3639;51.308;5.624;2023-09-07T01:19:11;17.40;99.90
7196;DHT22;3639;51.308;5.624;2023-09-07T01:21:38;17.30;99.90
7196;DHT22;3639;51.308;5.624;2023-09-07T01:24:07;17.20;99.90
7196;DHT22;3639;51.308;5.624;2023-09-07T01:26:37;17.20;99.90
7196;DHT22;3639;51.308;5.624;2023-09-07T01:29:06;17.10;99.90
7196;DHT22;3639;51.308;5.624;2023-09-07T01:31:41;17.00;99.90
7196;DHT22;3639;51.308;5.624;2023-09-07T01:34:11;17.00;99.90
7196;DHT22;3639;51.308;5.624;2023-09-07T01:36:37;17.00;99.90
7196;DHT22;3639;51.308;5.624;2023-09-07T01:39:04;16.90;99.90
7196;DHT22;3639;51.308;5.624;2023-09-07T01:41:31;16.80;99.90
7196;DHT22;3639;51.308;5.624;2023-09-07T01:43:56;16.80;99.90
7196;DHT22;3639;51.308;5.624;2023-09-07T01:46:22;16.80;99.90
7196;DHT22;3639;51.308;5.624;2023-09-07T01:48:49;16.80;99.90
7196;DHT22;3639;51.308;5.624;2023-09-07T01:51:15;16.80;99.90
7196;DHT22;3639;51.308;5.624;2023-09-07T01:53:40;16.70;99.90
7196;DHT22;3639;51.308;5.624;2023-09-07T01:56:06;16.70;99.90
7196;DHT22;3639;51.308;5.624;2023-09-07T01:58:33;16.70;99.90
7196;DHT22;3639;51.308;5.624;2023-09-07T02:00:59;16.70;99.90
7196;DHT22;3639;51.308;5.624;2023-09-07T02:03:25;16.60;99.90
7196;DHT22;3639;51.308;5.624;2023-09-07T02:05:52;16.70;99.90
7196;DHT22;3639;51.308;5.624;2023-09-07T02:08:18;16.60;99.90
7196;DHT22;3639;51.308;5.624;2023-09-07T02:10:45;16.60;99.90
7196;DHT22;3639;51.308;5.624;2023-09-07T02:13:11;16.50;99.90
7196;DHT22;3639;51.308;5.624;2023-09-07T02:15:38;16.50;99.90
7196;DHT22;3639;51.308;5.624;2023-09-07T02:18:05;16.50;99.90
7196;DHT22;3639;51.308;5.624;2023-09-07T02:20:31;16.40;99.90
7196;DHT22;3639;51.308;5.624;2023-09-07T02:22:57;16.40;99.90
7196;DHT22;3639;51.308;5.624;2023-09-07T02:25:24;16.40;99.90
7196;DHT22;3639;51.308;5.624;2023-09-07T02:27:49;16.40;99.90
7196;DHT22;3639;51.308;5.624;2023-09-07T02:30:15;16.30;99.90
7196;DHT22;3639;51.308;5.624;2023-09-07T02:32:42;16.30;99.90
7196;DHT22;3639;51.308;5.624;2023-09-07T02:35:08;16.30;99.90
7196;DHT22;3639;51.308;5.624;2023-09-07T02:37:35;16.30;99.90
7196;DHT22;3639;51.308;5.624;2023-09-07T02:40:01;16.20;99.90
7196;DHT22;3639;51.308;5.624;2023-09-07T02:42:29;16.20;99.90
7196;DHT22;3639;51.308;5.624;2023-09-07T02:44:54;16.20;99.90
7196;DHT22;3639;51.308;5.624;2023-09-07T02:47:20;16.10;99.90
7196;DHT22;3639;51.308;5.624;2023-09-07T02:49:47;16.10;99.90
7196;DHT22;3639;51.308;5.624;2023-09-07T02:52:12;16.10;99.90
7196;DHT22;3639;51.308;5.624;2023-09-07T02:54:38;16.10;99.90
7196;DHT22;3639;51.308;5.624;2023-09-07T02:57:04;16.10;99.90
7196;DHT22;3639;51.308;5.624;2023-09-07T02:59:29;16.00;99.90
7196;DHT22;3639;51.308;5.624;2023-09-07T03:01:55;16.00;99.90
7196;DHT22;3639;51.308;5.624;2023-09-07T03:04:22;16.00;99.90
7196;DHT22;3639;51.308;5.624;2023-09-07T03:06:48;16.00;99.90
7196;DHT22;3639;51.308;5.624;2023-09-07T03:09:14;16.00;99.90
7196;DHT22;3639;51.308;5.624;2023-09-07T03:11:40;15.90;99.90
7196;DHT22;3639;51.308;5.624;2023-09-07T03:14:06;15.90;99.90
7196;DHT22;3639;51.308;5.624;2023-09-07T03:16:31;15.90;99.90
7196;DHT22;3639;51.308;5.624;2023-09-07T03:18:57;15.90;99.90
7196;DHT22;3639;51.308;5.624;2023-09-07T03:21:24;15.80;99.90
7196;DHT22;3639;51.308;5.624;2023-09-07T03:23:55;15.80;99.90
7196;DHT22;3639;51.308;5.624;2023-09-07T03:26:21;15.80;99.90
7196;DHT22;3639;51.308;5.624;2023-09-07T03:28:47;15.80;99.90
7196;DHT22;3639;51.308;5.624;2023-09-07T03:31:12;15.80;99.90
7196;DHT22;3639;51.308;5.624;2023-09-07T03:33:38;15.70;99.90
7196;DHT22;3639;51.308;5.624;2023-09-07T03:36:04;15.60;99.90
7196;DHT22;3639;51.308;5.624;2023-09-07T03:38:30;15.70;99.90
7196;DHT22;3639;51.308;5.624;2023-09-07T03:40:55;15.70;99.90
7196;DHT22;3639;51.308;5.624;2023-09-07T03:43:21;15.70;99.90
7196;DHT22;3639;51.308;5.624;2023-09-07T03:45:46;15.60;99.90
7196;DHT22;3639;51.308;5.624;2023-09-07T03:48:12;15.60;99.90
7196;DHT22;3639;51.308;5.624;2023-09-07T03:50:39;15.60;99.90
7196;DHT22;3639;51.308;5.624;2023-09-07T03:53:04;15.60;99.90
7196;DHT22;3639;51.308;5.624;2023-09-07T03:55:39;15.50;99.90
7196;DHT22;3639;51.308;5.624;2023-09-07T03:58:06;15.50;99.90
7196;DHT22;3639;51.308;5.624;2023-09-07T04:00:32;15.50;99.90
7196;DHT22;3639;51.308;5.624;2023-09-07T04:02:57;15.50;99.90
7196;DHT22;3639;51.308;5.624;2023-09-07T04:05:23;15.40;99.90
7196;DHT22;3639;51.308;5.624;2023-09-07T04:07:50;15.40;99.90
7196;DHT22;3639;51.308;5.624;2023-09-07T04:10:17;15.40;99.90
7196;DHT22;3639;51.308;5.624;2023-09-07T04:12:43;15.30;99.90
7196;DHT22;3639;51.308;5.624;2023-09-07T04:15:09;15.30;99.90
7196;DHT22;3639;51.308;5.624;2023-09-07T04:17:35;15.30;99.90
7196;DHT22;3639;51.308;5.624;2023-09-07T04:20:09;15.30;99.90
7196;DHT22;3639;51.308;5.624;2023-09-07T04:22:39;15.20;99.90
7196;DHT22;3639;51.308;5.624;2023-09-07T04:25:06;15.20;99.90
7196;DHT22;3639;51.308;5.624;2023-09-07T04:27:32;15.20;99.90
7196;DHT22;3639;51.308;5.624;2023-09-07T04:29:57;15.20;99.90
7196;DHT22;3639;51.308;5.624;2023-09-07T04:32:24;15.10;99.90
7196;DHT22;3639;51.308;5.624;2023-09-07T04:34:54;15.10;99.90
7196;DHT22;3639;51.308;5.624;2023-09-07T04:37:22;15.00;99.90
7196;DHT22;3639;51.308;5.624;2023-09-07T04:39:51;14.90;99.90
7196;DHT22;3639;51.308;5.624;2023-09-07T04:42:18;14.90;99.90
7196;DHT22;3639;51.308;5.624;2023-09-07T04:44:43;14.80;99.90
7196;DHT22;3639;51.308;5.624;2023-09-07T04:47:09;14.80;99.90
7196;DHT22;3639;51.308;5.624;2023-09-07T04:49:34;14.80;99.90
7196;DHT22;3639;51.308;5.624;2023-09-07T04:52:00;14.80;99.90
7196;DHT22;3639;51.308;5.624;2023-09-07T04:54:25;14.80;99.90
7196;DHT22;3639;51.308;5.624;2023-09-07T04:56:51;14.80;99.90
7196;DHT22;3639;51.308;5.624;2023-09-07T04:59:17;14.80;99.90
7196;DHT22;3639;51.308;5.624;2023-09-07T05:01:45;14.80;99.90
7196;DHT22;3639;51.308;5.624;2023-09-07T05:04:11;14.90;99.90
7196;DHT22;3639;51.308;5.624;2023-09-07T05:06:38;14.90;99.90
7196;DHT22;3639;51.308;5.624;2023-09-07T05:09:06;14.90;99.90
7196;DHT22;3639;51.308;5.624;2023-09-07T05:11:31;14.90;99.90
7196;DHT22;3639;51.308;5.624;2023-09-07T05:14:00;14.90;99.90
7196;DHT22;3639;51.308;5.624;2023-09-07T05:16:26;14.90;99.90
7196;DHT22;3639;51.308;5.624;2023-09-07T05:18:52;14.90;99.90
7196;DHT22;3639;51.308;5.624;2023-09-07T05:21:17;14.90;99.90
7196;DHT22;3639;51.308;5.624;2023-09-07T05:23:43;14.90;99.90
7196;DHT22;3639;51.308;5.624;2023-09-07T05:26:09;14.90;99.90
7196;DHT22;3639;51.308;5.624;2023-09-07T05:28:34;14.90;99.90
7196;DHT22;3639;51.308;5.624;2023-09-07T05:31:00;15.00;99.90
7196;DHT22;3639;51.308;5.624;2023-09-07T05:33:26;15.00;99.90
7196;DHT22;3639;51.308;5.624;2023-09-07T05:35:51;15.00;99.90
7196;DHT22;3639;51.308;5.624;2023-09-07T05:38:17;15.00;99.90
7196;DHT22;3639;51.308;5.624;2023-09-07T05:40:44;15.10;99.90
7196;DHT22;3639;51.308;5.624;2023-09-07T05:43:10;15.10;99.90
7196;DHT22;3639;51.308;5.624;2023-09-07T05:45:39;15.10;99.90
7196;DHT22;3639;51.308;5.624;2023-09-07T05:48:06;15.10;99.90
7196;DHT22;3639;51.308;5.624;2023-09-07T05:50:34;15.10;99.90
7196;DHT22;3639;51.308;5.624;2023-09-07T05:53:01;15.10;99.90
7196;DHT22;3639;51.308;5.624;2023-09-07T05:55:26;15.20;99.90
7196;DHT22;3639;51.308;5.624;2023-09-07T05:57:54;15.20;99.90
7196;DHT22;3639;51.308;5.624;2023-09-07T06:00:20;15.20;99.90
7196;DHT22;3639;51.308;5.624;2023-09-07T06:02:46;15.30;99.90
7196;DHT22;3639;51.308;5.624;2023-09-07T06:05:12;15.20;99.90
7196;DHT22;3639;51.308;5.624;2023-09-07T06:07:39;15.30;99.90
7196;DHT22;3639;51.308;5.624;2023-09-07T06:10:05;15.40;99.90
7196;DHT22;3639;51.308;5.624;2023-09-07T06:12:32;15.50;99.90
7196;DHT22;3639;51.308;5.624;2023-09-07T06:14:59;15.60;99.90
7196;DHT22;3639;51.308;5.624;2023-09-07T06:17:26;15.70;99.90
7196;DHT22;3639;51.308;5.624;2023-09-07T06:19:51;15.90;99.90
7196;DHT22;3639;51.308;5.624;2023-09-07T06:22:17;16.00;99.90
7196;DHT22;3639;51.308;5.624;2023-09-07T06:24:42;16.10;99.90
7196;DHT22;3639;51.308;5.624;2023-09-07T06:27:08;16.20;99.90
7196;DHT22;3639;51.308;5.624;2023-09-07T06:29:34;16.30;99.90
7196;DHT22;3639;51.308;5.624;2023-09-07T06:31:59;16.40;99.90
7196;DHT22;3639;51.308;5.624;2023-09-07T06:34:26;16.40;99.90
7196;DHT22;3639;51.308;5.624;2023-09-07T06:36:51;16.50;99.90
7196;DHT22;3639;51.308;5.624;2023-09-07T06:39:17;16.60;99.90
7196;DHT22;3639;51.308;5.624;2023-09-07T06:41:46;16.80;99.90
7196;DHT22;3639;51.308;5.624;2023-09-07T06:44:12;16.90;99.90
7196;DHT22;3639;51.308;5.624;2023-09-07T06:46:37;17.10;99.90
7196;DHT22;3639;51.308;5.624;2023-09-07T06:49:03;17.20;99.90
7196;DHT22;3639;51.308;5.624;2023-09-07T06:51:30;17.30;99.90
7196;DHT22;3639;51.308;5.624;2023-09-07T06:53:56;17.50;99.90
7196;DHT22;3639;51.308;5.624;2023-09-07T06:56:22;17.60;99.90
7196;DHT22;3639;51.308;5.624;2023-09-07T06:58:47;17.70;99.90
7196;DHT22;3639;51.308;5.624;2023-09-07T07:01:13;17.90;99.90
7196;DHT22;3639;51.308;5.624;2023-09-07T07:03:39;17.90;99.90
7196;DHT22;3639;51.308;5.624;2023-09-07T07:06:05;18.00;99.90
7196;DHT22;3639;51.308;5.624;2023-09-07T07:08:32;18.20;99.90
7196;DHT22;3639;51.308;5.624;2023-09-07T07:10:57;18.30;99.90
7196;DHT22;3639;51.308;5.624;2023-09-07T07:13:25;18.40;99.90
7196;DHT22;3639;51.308;5.624;2023-09-07T07:15:51;18.60;99.90
7196;DHT22;3639;51.308;5.624;2023-09-07T07:18:18;18.80;99.90
7196;DHT22;3639;51.308;5.624;2023-09-07T07:20:44;18.90;99.90
7196;DHT22;3639;51.308;5.624;2023-09-07T07:23:11;19.00;99.90
7196;DHT22;3639;51.308;5.624;2023-09-07T07:25:37;19.10;99.90
7196;DHT22;3639;51.308;5.624;2023-09-07T07:28:04;19.30;99.90
7196;DHT22;3639;51.308;5.624;2023-09-07T07:30:38;19.40;99.90
7196;DHT22;3639;51.308;5.624;2023-09-07T07:33:05;19.50;99.90
7196;DHT22;3639;51.308;5.624;2023-09-07T07:35:32;19.70;99.90
7196;DHT22;3639;51.308;5.624;2023-09-07T07:37:58;19.80;99.90
7196;DHT22;3639;51.308;5.624;2023-09-07T07:40:23;20.00;99.90
7196;DHT22;3639;51.308;5.624;2023-09-07T07:42:52;20.20;99.90
7196;DHT22;3639;51.308;5.624;2023-09-07T07:45:17;20.30;99.90
7196;DHT22;3639;51.308;5.624;2023-09-07T07:47:49;20.40;99.90
7196;DHT22;3639;51.308;5.624;2023-09-07T07:50:15;20.60;99.90
7196;DHT22;3639;51.308;5.624;2023-09-07T07:52:42;20.70;99.90
7196;DHT22;3639;51.308;5.624;2023-09-07T07:55:08;20.90;99.90
7196;DHT22;3639;51.308;5.624;2023-09-07T07:57:33;21.00;99.90
7196;DHT22;3639;51.308;5.624;2023-09-07T07:59:59;21.20;99.90
7196;DHT22;3639;51.308;5.624;2023-09-07T08:02:25;21.20;99.90
7196;DHT22;3639;51.308;5.624;2023-09-07T08:04:50;21.40;99.90
7196;DHT22;3639;51.308;5.624;2023-09-07T08:07:16;21.50;99.90
7196;DHT22;3639;51.308;5.624;2023-09-07T08:09:42;21.60;99.90
7196;DHT22;3639;51.308;5.624;2023-09-07T08:12:07;21.70;99.90
7196;DHT22;3639;51.308;5.624;2023-09-07T08:14:35;21.80;99.90
7196;DHT22;3639;51.308;5.624;2023-09-07T08:17:01;21.90;99.90
7196;DHT22;3639;51.308;5.624;2023-09-07T08:19:27;22.00;99.90
7196;DHT22;3639;51.308;5.624;2023-09-07T08:21:57;22.10;99.90
7196;DHT22;3639;51.308;5.624;2023-09-07T08:24:23;22.20;99.90
7196;DHT22;3639;51.308;5.624;2023-09-07T08:26:49;22.30;99.90
7196;DHT22;3639;51.308;5.624;2023-09-07T08:29:17;22.40;99.90
7196;DHT22;3639;51.308;5.624;2023-09-07T08:31:45;22.60;99.90
7196;DHT22;3639;51.308;5.624;2023-09-07T08:34:13;22.70;99.90
7196;DHT22;3639;51.308;5.624;2023-09-07T08:36:40;22.80;99.90
7196;DHT22;3639;51.308;5.624;2023-09-07T08:39:06;22.90;99.90
7196;DHT22;3639;51.308;5.624;2023-09-07T08:41:37;23.00;99.90
7196;DHT22;3639;51.308;5.624;2023-09-07T08:44:08;23.10;99.90
7196;DHT22;3639;51.308;5.624;2023-09-07T08:46:35;23.20;99.90
7196;DHT22;3639;51.308;5.624;2023-09-07T08:49:02;23.30;99.90
7196;DHT22;3639;51.308;5.624;2023-09-07T08:51:28;23.50;99.90
7196;DHT22;3639;51.308;5.624;2023-09-07T08:53:54;23.60;99.90
7196;DHT22;3639;51.308;5.624;2023-09-07T08:56:22;23.70;99.90
7196;DHT22;3639;51.308;5.624;2023-09-07T08:58:48;23.70;99.90
7196;DHT22;3639;51.308;5.624;2023-09-07T09:01:15;23.80;99.90
7196;DHT22;3639;51.308;5.624;2023-09-07T09:03:45;23.90;99.90
7196;DHT22;3639;51.308;5.624;2023-09-07T09:06:11;24.10;99.90
7196;DHT22;3639;51.308;5.624;2023-09-07T09:08:50;24.30;99.90
7196;DHT22;3639;51.308;5.624;2023-09-07T09:11:17;24.30;99.90
7196;DHT22;3639;51.308;5.624;2023-09-07T09:13:43;24.40;99.90
7196;DHT22;3639;51.308;5.624;2023-09-07T09:16:10;24.40;99.90
7196;DHT22;3639;51.308;5.624;2023-09-07T09:18:36;24.50;99.90
7196;DHT22;3639;51.308;5.624;2023-09-07T09:21:03;24.70;99.90
7196;DHT22;3639;51.308;5.624;2023-09-07T09:23:32;24.90;99.90
7196;DHT22;3639;51.308;5.624;2023-09-07T09:26:05;25.00;99.90
7196;DHT22;3639;51.308;5.624;2023-09-07T09:28:32;25.10;99.90
7196;DHT22;3639;51.308;5.624;2023-09-07T09:31:03;25.30;99.90
7196;DHT22;3639;51.308;5.624;2023-09-07T09:33:32;25.20;99.90
7196;DHT22;3639;51.308;5.624;2023-09-07T09:36:01;25.20;99.90
7196;DHT22;3639;51.308;5.624;2023-09-07T09:38:27;25.40;99.90
7196;DHT22;3639;51.308;5.624;2023-09-07T09:40:54;25.50;99.90
7196;DHT22;3639;51.308;5.624;2023-09-07T09:43:20;25.60;99.90
7196;DHT22;3639;51.308;5.624;2023-09-07T09:45:46;25.70;99.90
7196;DHT22;3639;51.308;5.624;2023-09-07T09:48:16;25.80;99.90
7196;DHT22;3639;51.308;5.624;2023-09-07T09:50:43;25.80;99.90
7196;DHT22;3639;51.308;5.624;2023-09-07T09:53:10;25.90;99.90
7196;DHT22;3639;51.308;5.624;2023-09-07T09:55:41;25.90;99.90
7196;DHT22;3639;51.308;5.624;2023-09-07T09:58:06;26.10;99.90
7196;DHT22;3639;51.308;5.624;2023-09-07T10:00:32;26.10;99.90
7196;DHT22;3639;51.308;5.624;2023-09-07T10:03:10;26.20;99.90
7196;DHT22;3639;51.308;5.624;2023-09-07T10:05:39;26.30;99.90
7196;DHT22;3639;51.308;5.624;2023-09-07T10:08:15;26.20;99.90
7196;DHT22;3639;51.308;5.624;2023-09-07T10:10:43;26.20;99.90
7196;DHT22;3639;51.308;5.624;2023-09-07T10:13:09;26.30;99.90
7196;DHT22;3639;51.308;5.624;2023-09-07T10:15:35;26.40;99.90
7196;DHT22;3639;51.308;5.624;2023-09-07T10:20:56;26.50;99.90
7196;DHT22;3639;51.308;5.624;2023-09-07T10:23:39;26.50;99.90
7196;DHT22;3639;51.308;5.624;2023-09-07T10:26:09;26.50;99.90
7196;DHT22;3639;51.308;5.624;2023-09-07T10:28:35;26.60;99.90
7196;DHT22;3639;51.308;5.624;2023-09-07T10:31:06;26.70;99.90
7196;DHT22;3639;51.308;5.624;2023-09-07T10:33:34;26.80;99.90
7196;DHT22;3639;51.308;5.624;2023-09-07T10:36:04;26.90;99.90
7196;DHT22;3639;51.308;5.624;2023-09-07T10:38:34;26.90;99.90
7196;DHT22;3639;51.308;5.624;2023-09-07T10:41:02;27.00;99.90
7196;DHT22;3639;51.308;5.624;2023-09-07T10:43:31;27.10;99.90
7196;DHT22;3639;51.308;5.624;2023-09-07T10:45:58;27.20;99.90
7196;DHT22;3639;51.308;5.624;2023-09-07T10:48:30;27.30;99.90
7196;DHT22;3639;51.308;5.624;2023-09-07T10:50:56;27.30;99.90
7196;DHT22;3639;51.308;5.624;2023-09-07T10:53:30;27.30;99.90
7196;DHT22;3639;51.308;5.624;2023-09-07T10:56:02;27.30;99.90
7196;DHT22;3639;51.308;5.624;2023-09-07T10:58:34;27.40;99.90
7196;DHT22;3639;51.308;5.624;2023-09-07T11:01:01;27.40;99.90
7196;DHT22;3639;51.308;5.624;2023-09-07T11:03:28;27.50;99.90
7196;DHT22;3639;51.308;5.624;2023-09-07T11:06:00;27.60;99.90
7196;DHT22;3639;51.308;5.624;2023-09-07T11:08:29;27.60;99.90
7196;DHT22;3639;51.308;5.624;2023-09-07T11:10:54;27.60;99.90
7196;DHT22;3639;51.308;5.624;2023-09-07T11:13:21;27.70;99.90
7196;DHT22;3639;51.308;5.624;2023-09-07T11:15:48;27.80;99.90
7196;DHT22;3639;51.308;5.624;2023-09-07T11:18:19;27.80;99.90
7196;DHT22;3639;51.308;5.624;2023-09-07T11:20:44;27.90;99.90
7196;DHT22;3639;51.308;5.624;2023-09-07T11:23:11;28.00;99.90
7196;DHT22;3639;51.308;5.624;2023-09-07T11:25:37;28.10;99.90
7196;DHT22;3639;51.308;5.624;2023-09-07T11:28:07;28.30;99.90
7196;DHT22;3639;51.308;5.624;2023-09-07T11:30:33;28.30;99.90
7196;DHT22;3639;51.308;5.624;2023-09-07T11:33:06;28.50;99.90
7196;DHT22;3639;51.308;5.624;2023-09-07T11:35:36;28.60;99.90
7196;DHT22;3639;51.308;5.624;2023-09-07T11:38:03;28.70;99.90
7196;DHT22;3639;51.308;5.624;2023-09-07T11:40:30;28.60;99.90
7196;DHT22;3639;51.308;5.624;2023-09-07T11:42:56;28.70;99.90
7196;DHT22;3639;51.308;5.624;2023-09-07T11:45:22;28.60;99.90
7196;DHT22;3639;51.308;5.624;2023-09-07T11:47:47;28.60;99.90
7196;DHT22;3639;51.308;5.624;2023-09-07T11:50:16;28.70;99.90
7196;DHT22;3639;51.308;5.624;2023-09-07T11:52:42;28.70;99.90
7196;DHT22;3639;51.308;5.624;2023-09-07T11:55:07;28.80;99.90
7196;DHT22;3639;51.308;5.624;2023-09-07T11:57:38;28.80;99.90
7196;DHT22;3639;51.308;5.624;2023-09-07T12:00:05;28.80;99.90
7196;DHT22;3639;51.308;5.624;2023-09-07T12:02:31;28.80;99.90
7196;DHT22;3639;51.308;5.624;2023-09-07T12:04:56;28.80;99.90
7196;DHT22;3639;51.308;5.624;2023-09-07T12:07:22;28.90;99.90
7196;DHT22;3639;51.308;5.624;2023-09-07T12:09:49;28.90;99.90
7196;DHT22;3639;51.308;5.624;2023-09-07T12:12:14;29.00;99.90
7196;DHT22;3639;51.308;5.624;2023-09-07T12:14:40;29.00;99.90
7196;DHT22;3639;51.308;5.624;2023-09-07T12:17:05;29.00;99.70
7196;DHT22;3639;51.308;5.624;2023-09-07T12:19:31;29.10;99.40
7196;DHT22;3639;51.308;5.624;2023-09-07T12:21:57;29.10;99.90
7196;DHT22;3639;51.308;5.624;2023-09-07T12:24:23;29.10;99.50
7196;DHT22;3639;51.308;5.624;2023-09-07T12:26:48;29.00;99.40
7196;DHT22;3639;51.308;5.624;2023-09-07T12:29:14;29.10;99.90
7196;DHT22;3639;51.308;5.624;2023-09-07T12:31:40;29.00;98.90
7196;DHT22;3639;51.308;5.624;2023-09-07T12:34:06;29.00;99.60
7196;DHT22;3639;51.308;5.624;2023-09-07T12:36:33;29.10;99.90
7196;DHT22;3639;51.308;5.624;2023-09-07T12:38:59;29.00;99.10
7196;DHT22;3639;51.308;5.624;2023-09-07T12:41:28;29.00;99.50
7196;DHT22;3639;51.308;5.624;2023-09-07T12:43:55;28.90;99.30
7196;DHT22;3639;51.308;5.624;2023-09-07T12:46:21;28.90;99.10
7196;DHT22;3639;51.308;5.624;2023-09-07T12:48:46;28.90;99.60
7196;DHT22;3639;51.308;5.624;2023-09-07T12:51:12;29.10;99.20
7196;DHT22;3639;51.308;5.624;2023-09-07T12:53:37;29.10;99.00
7196;DHT22;3639;51.308;5.624;2023-09-07T12:56:03;29.10;98.70
7196;DHT22;3639;51.308;5.624;2023-09-07T12:58:29;29.20;98.40
7196;DHT22;3639;51.308;5.624;2023-09-07T13:00:54;29.10;98.80
7196;DHT22;3639;51.308;5.624;2023-09-07T13:03:20;29.10;98.60
7196;DHT22;3639;51.308;5.624;2023-09-07T13:05:47;29.20;98.40
7196;DHT22;3639;51.308;5.624;2023-09-07T13:08:13;29.20;98.60
7196;DHT22;3639;51.308;5.624;2023-09-07T13:10:39;29.20;99.00
7196;DHT22;3639;51.308;5.624;2023-09-07T13:13:05;29.40;98.50
7196;DHT22;3639;51.308;5.624;2023-09-07T13:15:31;29.50;98.30
7196;DHT22;3639;51.308;5.624;2023-09-07T13:17:56;29.50;98.10
7196;DHT22;3639;51.308;5.624;2023-09-07T13:20:25;29.40;98.10
7196;DHT22;3639;51.308;5.624;2023-09-07T13:22:51;29.30;98.20
7196;DHT22;3639;51.308;5.624;2023-09-07T13:25:17;29.40;97.70
7196;DHT22;3639;51.308;5.624;2023-09-07T13:27:43;29.40;97.50
7196;DHT22;3639;51.308;5.624;2023-09-07T13:30:09;29.40;98.20
7196;DHT22;3639;51.308;5.624;2023-09-07T13:32:35;29.40;97.60
7196;DHT22;3639;51.308;5.624;2023-09-07T13:35:00;29.50;97.40
7196;DHT22;3639;51.308;5.624;2023-09-07T13:37:26;29.50;98.10
7196;DHT22;3639;51.308;5.624;2023-09-07T13:39:52;29.50;98.60
7196;DHT22;3639;51.308;5.624;2023-09-07T13:42:17;29.50;98.10
7196;DHT22;3639;51.308;5.624;2023-09-07T13:44:43;29.50;98.10
7196;DHT22;3639;51.308;5.624;2023-09-07T13:47:15;29.50;97.90
7196;DHT22;3639;51.308;5.624;2023-09-07T13:49:40;29.50;98.30
7196;DHT22;3639;51.308;5.624;2023-09-07T13:52:06;29.60;98.10
7196;DHT22;3639;51.308;5.624;2023-09-07T13:54:31;29.60;98.40
7196;DHT22;3639;51.308;5.624;2023-09-07T13:56:57;29.60;97.90
7196;DHT22;3639;51.308;5.624;2023-09-07T13:59:22;29.60;98.30
7196;DHT22;3639;51.308;5.624;2023-09-07T14:01:50;29.60;98.60
7196;DHT22;3639;51.308;5.624;2023-09-07T14:04:17;29.60;97.80
7196;DHT22;3639;51.308;5.624;2023-09-07T14:06:42;29.60;97.20
7196;DHT22;3639;51.308;5.624;2023-09-07T14:09:08;29.60;97.30
7196;DHT22;3639;51.308;5.624;2023-09-07T14:11:34;29.70;97.30
7196;DHT22;3639;51.308;5.624;2023-09-07T14:13:59;29.60;98.30
7196;DHT22;3639;51.308;5.624;2023-09-07T14:16:25;29.60;97.20
7196;DHT22;3639;51.308;5.624;2023-09-07T14:18:51;29.60;97.40
7196;DHT22;3639;51.308;5.624;2023-09-07T14:21:17;29.60;97.40
7196;DHT22;3639;51.308;5.624;2023-09-07T14:23:43;29.60;97.50
7196;DHT22;3639;51.308;5.624;2023-09-07T14:26:09;29.60;98.20
7196;DHT22;3639;51.308;5.624;2023-09-07T14:28:35;29.60;98.30
7196;DHT22;3639;51.308;5.624;2023-09-07T14:31:02;29.60;97.90
7196;DHT22;3639;51.308;5.624;2023-09-07T14:33:33;29.70;98.20
7196;DHT22;3639;51.308;5.624;2023-09-07T14:35:59;29.70;98.10
7196;DHT22;3639;51.308;5.624;2023-09-07T14:38:25;29.70;97.70
7196;DHT22;3639;51.308;5.624;2023-09-07T14:40:53;29.70;97.00
7196;DHT22;3639;51.308;5.624;2023-09-07T14:43:24;29.70;98.10
7196;DHT22;3639;51.308;5.624;2023-09-07T14:45:50;29.70;97.80
7196;DHT22;3639;51.308;5.624;2023-09-07T14:48:15;29.70;98.10
7196;DHT22;3639;51.308;5.624;2023-09-07T14:50:41;29.80;98.50
7196;DHT22;3639;51.308;5.624;2023-09-07T14:53:07;29.80;97.80
7196;DHT22;3639;51.308;5.624;2023-09-07T14:55:32;29.80;98.50
7196;DHT22;3639;51.308;5.624;2023-09-07T14:57:58;29.80;97.50
7196;DHT22;3639;51.308;5.624;2023-09-07T15:00:24;29.80;97.90
7196;DHT22;3639;51.308;5.624;2023-09-07T15:02:52;29.80;98.30
7196;DHT22;3639;51.308;5.624;2023-09-07T15:05:17;29.70;97.80
7196;DHT22;3639;51.308;5.624;2023-09-07T15:07:43;29.80;97.90
7196;DHT22;3639;51.308;5.624;2023-09-07T15:10:10;29.80;97.40
7196;DHT22;3639;51.308;5.624;2023-09-07T15:12:38;29.80;96.90
7196;DHT22;3639;51.308;5.624;2023-09-07T15:15:05;29.80;97.30
7196;DHT22;3639;51.308;5.624;2023-09-07T15:17:30;29.80;97.70
7196;DHT22;3639;51.308;5.624;2023-09-07T15:19:56;29.80;97.30
7196;DHT22;3639;51.308;5.624;2023-09-07T15:22:21;29.90;97.30
7196;DHT22;3639;51.308;5.624;2023-09-07T15:24:47;29.90;97.00
7196;DHT22;3639;51.308;5.624;2023-09-07T15:27:14;30.00;97.00
7196;DHT22;3639;51.308;5.624;2023-09-07T15:29:40;30.10;96.70
7196;DHT22;3639;51.308;5.624;2023-09-07T15:32:06;30.10;95.50
7196;DHT22;3639;51.308;5.624;2023-09-07T15:34:32;30.10;95.60
7196;DHT22;3639;51.308;5.624;2023-09-07T15:37:00;30.20;95.90
7196;DHT22;3639;51.308;5.624;2023-09-07T15:39:26;30.20;96.50
7196;DHT22;3639;51.308;5.624;2023-09-07T15:41:51;30.20;96.70
7196;DHT22;3639;51.308;5.624;2023-09-07T15:44:20;30.30;96.60
7196;DHT22;3639;51.308;5.624;2023-09-07T15:46:45;30.30;95.60
7196;DHT22;3639;51.308;5.624;2023-09-07T15:49:11;30.20;95.70
7196;DHT22;3639;51.308;5.624;2023-09-07T15:51:37;30.20;95.90
7196;DHT22;3639;51.308;5.624;2023-09-07T15:54:02;30.10;95.90
7196;DHT22;3639;51.308;5.624;2023-09-07T15:56:28;30.00;96.20
7196;DHT22;3639;51.308;5.624;2023-09-07T15:58:54;29.90;96.70
7196;DHT22;3639;51.308;5.624;2023-09-07T16:01:21;29.80;96.80